Time;durP1;ratioP1;P1;durP2;ratioP2;P2;SDS_P1;SDS_P2;PMS_P1;PMS_P2;Temp;Humidity;BMP_temperature;BMP_pressure;BME280_temperature;BME280_humidity;BME280_pressure;Samples;Min_cycle;Max_cycle;Signal;HPM_P1;HPM_P2
2022/03/30 00:01:23;;;;;;;6.45;4.50;;;;;;;20.10;36.93;100936.06;5041310;28;20238;-69
2022/03/30 00:03:48;;;;;;;6.07;4.22;;;;;;;20.19;36.89;100948.25;5000798;28;20040;-69
2022/03/30 00:06:14;;;;;;;6.57;4.57;;;;;;;20.19;36.84;100945.59;5040642;28;20492;-69
2022/03/30 00:08:42;;;;;;;6.40;4.43;;;;;;;20.18;36.90;100941.31;5000649;28;20542;-69
2022/03/30 00:11:08;;;;;;;6.32;4.15;;;;;;;20.12;36.91;100935.94;5039962;28;20166;-69
2022/03/30 00:13:35;;;;;;;6.53;4.53;;;;;;;20.15;36.86;100940.84;4983550;28;21223;-69
2022/03/30 00:16:02;;;;;;;7.30;4.38;;;;;;;20.13;36.89;100934.94;5037242;28;20086;-69
2022/03/30 00:18:28;;;;;;;5.80;4.40;;;;;;;20.15;36.92;100938.22;5040734;28;20168;-69
2022/03/30 00:20:54;;;;;;;6.18;4.15;;;;;;;20.03;37.06;100923.75;5003124;28;20033;-69
2022/03/30 00:23:19;;;;;;;7.68;4.10;;;;;;;20.09;36.93;100928.31;5034804;28;20028;-69
2022/03/30 00:25:45;;;;;;;6.30;4.18;;;;;;;20.08;36.84;100922.22;4997214;28;20033;-69
2022/03/30 00:28:10;;;;;;;6.85;4.25;;;;;;;20.11;36.90;100927.19;5032602;28;22079;-69
2022/03/30 00:30:36;;;;;;;7.18;4.22;;;;;;;20.09;36.91;100929.16;4984956;28;20056;-68
2022/03/30 00:33:02;;;;;;;5.28;4.03;;;;;;;20.08;37.13;100929.34;5030944;28;20059;-70
2022/03/30 00:35:27;;;;;;;6.25;4.05;;;;;;;20.09;36.95;100938.91;4997075;28;20052;-71
2022/03/30 00:37:53;;;;;;;6.30;4.18;;;;;;;20.04;36.98;100933.34;5043985;28;20044;-71
2022/03/30 00:40:18;;;;;;;5.45;4.10;;;;;;;20.02;36.92;100927.41;5008883;28;20043;-70
2022/03/30 00:42:45;;;;;;;6.72;4.10;;;;;;;20.07;36.86;100931.16;5038184;28;20053;-71
2022/03/30 00:45:13;;;;;;;6.15;4.22;;;;;;;19.99;36.91;100928.59;5004791;28;20044;-69
2022/03/30 00:47:40;;;;;;;6.38;4.43;;;;;;;20.00;36.96;100935.53;5030753;28;20115;-70
2022/03/30 00:50:09;;;;;;;6.40;4.05;;;;;;;19.92;36.89;100909.97;5042553;28;20133;-69
2022/03/30 00:52:35;;;;;;;6.47;4.40;;;;;;;19.97;36.96;100920.03;5003908;28;20051;-71
2022/03/30 00:55:01;;;;;;;7.60;4.70;;;;;;;19.99;37.05;100927.78;5039743;28;20041;-71
2022/03/30 00:57:28;;;;;;;7.95;4.35;;;;;;;19.99;36.89;100925.94;5009981;28;20049;-70
2022/03/30 00:59:56;;;;;;;4.97;3.90;;;;;;;19.88;37.05;100910.50;5047740;28;20475;-70
2022/03/30 01:02:23;;;;;;;6.63;4.30;;;;;;;19.99;36.92;100914.56;4989643;28;20479;-70
2022/03/30 01:04:49;;;;;;;5.97;4.05;;;;;;;19.95;36.96;100916.75;5035933;28;20784;-70
2022/03/30 01:07:15;;;;;;;5.72;3.97;;;;;;;19.98;36.90;100912.91;5002707;28;20037;-70
2022/03/30 01:09:41;;;;;;;5.13;3.97;;;;;;;19.87;36.94;100895.66;5042721;28;20501;-70
2022/03/30 01:12:08;;;;;;;6.05;3.92;;;;;;;19.94;37.13;100901.06;5002431;28;20140;-70
2022/03/30 01:14:34;;;;;;;7.28;4.07;;;;;;;19.93;36.93;100902.88;5038952;28;20044;-70
2022/03/30 01:17:00;;;;;;;7.10;4.38;;;;;;;19.91;37.01;100896.94;5009812;28;25547;-70
2022/03/30 01:19:31;;;;;;;5.43;4.10;;;;;;;19.91;37.09;100896.94;5021152;28;20058;-69
2022/03/30 01:21:56;;;;;;;4.68;3.55;;;;;;;19.84;36.93;100878.34;5040034;28;20648;-69
2022/03/30 01:24:22;;;;;;;6.78;4.00;;;;;;;19.91;37.05;100892.47;5007135;28;20048;-69
2022/03/30 01:26:48;;;;;;;5.30;4.00;;;;;;;19.92;37.05;100888.00;5031838;28;20029;-69
2022/03/30 01:34:43;;;;;;;6.30;4.10;;;;;;;19.90;37.04;100872.31;4988091;28;20098;-69
2022/03/30 01:37:12;;;;;;;6.47;4.22;;;;;;;19.86;37.03;100859.66;5047654;28;20472;-69
2022/03/30 01:39:38;;;;;;;5.75;3.88;;;;;;;19.86;37.02;100857.84;5002439;28;20051;-69
2022/03/30 01:42:05;;;;;;;7.82;4.45;;;;;;;19.87;37.02;100856.00;5040187;28;20037;-69
2022/03/30 01:44:31;;;;;;;6.72;4.43;;;;;;;19.85;36.97;100856.19;5008745;28;20037;-69
2022/03/30 01:46:57;;;;;;;5.63;4.15;;;;;;;19.84;37.12;100857.19;5044790;28;20510;-69
2022/03/30 01:49:22;;;;;;;6.32;4.28;;;;;;;19.76;36.96;100843.25;4982715;28;20059;-72
2022/03/30 01:51:49;;;;;;;5.68;3.88;;;;;;;19.83;37.05;100852.91;5038319;28;20041;-72
2022/03/30 01:54:21;;;;;;;8.10;4.05;;;;;;;19.76;36.93;100838.78;5036789;28;20136;-71
2022/03/30 01:56:47;;;;;;;6.13;3.78;;;;;;;19.76;36.83;100841.44;5008910;28;20052;-71
2022/03/30 01:59:14;;;;;;;6.07;4.10;;;;;;;19.82;36.92;100842.53;5040824;28;20040;-72
2022/03/30 02:01:41;;;;;;;6.68;4.15;;;;;;;19.78;37.00;100842.06;4997656;28;20799;-72
2022/03/30 02:04:07;;;;;;;5.07;3.92;;;;;;;19.85;36.80;100839.50;5034779;28;20048;-71
2022/03/30 02:06:33;;;;;;;6.93;4.07;;;;;;;19.82;36.96;100837.25;4987818;28;20033;-71
2022/03/30 02:08:59;;;;;;;6.78;4.03;;;;;;;19.81;36.85;100832.97;5037901;28;20047;-71
2022/03/30 02:11:26;;;;;;;5.82;4.40;;;;;;;19.79;36.86;100832.31;5003467;28;20049;-71
2022/03/30 02:13:55;;;;;;;5.10;3.78;;;;;;;19.80;36.91;100833.97;5039732;28;20147;-71
2022/03/30 02:16:21;;;;;;;6.18;4.18;;;;;;;19.79;37.08;100832.31;5000825;28;20722;-71
2022/03/30 02:18:47;;;;;;;7.55;4.20;;;;;;;19.78;37.04;100834.13;5040693;28;20056;-71
2022/03/30 02:21:13;;;;;;;5.30;3.90;;;;;;;19.78;36.92;100833.31;5003944;28;20106;-72
2022/03/30 02:23:39;;;;;;;5.18;3.70;;;;;;;19.80;36.95;100831.31;5032106;28;20052;-72
2022/03/30 02:26:06;;;;;;;5.40;3.88;;;;;;;19.75;36.99;100823.06;5038649;28;20052;-71
2022/03/30 02:28:32;;;;;;;6.47;4.50;;;;;;;19.65;37.12;100811.97;5003550;28;20483;-71
2022/03/30 02:30:57;;;;;;;5.82;4.07;;;;;;;19.73;37.02;100827.72;5041152;28;20097;-72
2022/03/30 02:33:24;;;;;;;6.35;3.83;;;;;;;19.73;37.07;100831.19;5006811;28;20444;-72
2022/03/30 02:35:50;;;;;;;8.55;4.50;;;;;;;19.72;37.03;100824.25;5043972;28;20041;-72
2022/03/30 02:38:18;;;;;;;6.53;3.83;;;;;;;19.74;36.96;100826.72;4992592;28;20043;-71
2022/03/30 02:40:44;;;;;;;6.57;4.20;;;;;;;19.71;37.13;100824.44;5043178;28;20827;-72
2022/03/30 02:43:10;;;;;;;5.22;4.00;;;;;;;19.66;37.14;100806.50;5039953;28;20045;-72
2022/03/30 02:45:38;;;;;;;5.18;3.95;;;;;;;19.68;37.07;100811.59;5007829;28;20051;-71
2022/03/30 02:48:21;;;;;;;5.28;3.90;;;;;;;19.67;37.14;100818.69;5039679;28;20041;-72
2022/03/30 02:50:53;;;;;;;5.72;4.00;;;;;;;19.73;36.97;100817.97;5007795;28;20049;-72
2022/03/30 02:53:19;;;;;;;5.28;3.78;;;;;;;19.73;37.07;100819.81;5040639;28;20670;-71
2022/03/30 02:55:46;;;;;;;6.28;3.90;;;;;;;19.66;37.08;100805.69;4994250;28;20457;-72
2022/03/30 02:58:12;;;;;;;4.75;3.40;;;;;;;19.64;36.96;100799.75;5041964;28;20624;-72
2022/03/30 03:00:38;;;;;;;4.55;3.78;;;;;;;19.69;37.04;100810.59;5004744;28;20060;-72
2022/03/30 03:03:05;;;;;;;6.90;4.72;;;;;;;19.69;37.09;100811.41;5044465;28;20051;-71
2022/03/30 03:05:34;;;;;;;6.03;3.90;;;;;;;19.65;37.18;100814.59;5004009;28;20029;-72
2022/03/30 03:08:04;;;;;;;6.25;3.92;;;;;;;19.67;37.00;100807.31;5031650;28;20086;-72
2022/03/30 03:10:34;;;;;;;5.65;3.95;;;;;;;19.64;37.25;100799.75;4977373;28;20044;-72
2022/03/30 03:12:59;;;;;;;4.72;3.42;;;;;;;19.65;37.02;100802.22;5031436;28;20086;-72
2022/03/30 03:15:25;;;;;;;5.45;4.10;;;;;;;19.48;37.08;100774.28;5032671;28;20040;-71
2022/03/30 03:17:51;;;;;;;7.40;4.05;;;;;;;19.66;37.04;100806.50;4995144;28;20087;-72
2022/03/30 03:20:17;;;;;;;5.93;3.97;;;;;;;19.63;36.96;100795.47;5042998;28;20057;-72
2022/03/30 03:22:43;;;;;;;5.03;3.75;;;;;;;19.53;37.10;100780.66;4997724;28;20040;-72
2022/03/30 03:25:10;;;;;;;6.55;3.75;;;;;;;19.47;36.98;100773.44;5039031;28;20035;-72
2022/03/30 03:27:37;;;;;;;6.07;4.22;;;;;;;19.64;37.04;100794.47;4994145;28;20068;-73
2022/03/30 03:30:04;;;;;;;6.22;4.22;;;;;;;19.62;36.95;100802.56;5038086;28;20121;-71
2022/03/30 03:32:30;;;;;;;5.88;4.50;;;;;;;19.62;37.11;100802.56;5004011;28;20045;-71
2022/03/30 03:34:55;;;;;;;6.35;4.35;;;;;;;19.60;37.03;100794.00;5037754;28;20044;-72
2022/03/30 03:37:21;;;;;;;5.90;3.97;;;;;;;19.63;37.10;100796.28;5001474;28;20114;-72
2022/03/30 03:39:47;;;;;;;4.55;3.70;;;;;;;19.50;37.09;100788.13;5040955;28;20048;-72
2022/03/30 03:42:13;;;;;;;4.75;3.75;;;;;;;19.54;36.93;100795.53;5003881;28;20098;-72
2022/03/30 03:44:40;;;;;;;5.63;4.05;;;;;;;19.59;37.17;100793.19;5032462;28;20036;-72
2022/03/30 03:47:12;;;;;;;5.82;4.10;;;;;;;19.52;37.15;100791.41;5038340;28;20044;-72
2022/03/30 03:49:38;;;;;;;7.38;3.75;;;;;;;19.50;37.03;100786.28;4997344;28;20541;-72
2022/03/30 03:52:05;;;;;;;4.25;3.17;;;;;;;19.55;37.24;100797.16;5042966;28;20033;-72
2022/03/30 03:54:31;;;;;;;6.05;4.10;;;;;;;19.55;36.97;100785.78;5007542;28;20687;-72
2022/03/30 03:56:57;;;;;;;5.72;3.70;;;;;;;19.53;37.10;100783.28;5039756;28;20040;-72
2022/03/30 03:59:22;;;;;;;6.25;4.05;;;;;;;19.53;37.13;100780.66;4990231;28;20454;-72
2022/03/30 04:01:48;;;;;;;4.60;3.33;;;;;;;19.56;37.07;100782.97;5040670;28;20040;-72
2022/03/30 04:04:14;;;;;;;5.43;3.95;;;;;;;19.50;37.17;100788.94;5013010;28;20593;-72
2022/03/30 04:06:39;;;;;;;5.28;3.60;;;;;;;19.52;37.02;100786.13;5044257;28;20049;-72
2022/03/30 04:09:05;;;;;;;5.78;3.75;;;;;;;19.51;37.04;100787.13;4998119;28;20037;-72
2022/03/30 04:11:30;;;;;;;5.38;3.92;;;;;;;19.48;37.25;100776.91;5043287;28;20651;-72
2022/03/30 04:13:56;;;;;;;4.63;3.60;;;;;;;19.52;36.87;100780.81;5010504;28;20174;-72
2022/03/30 04:16:21;;;;;;;5.32;3.50;;;;;;;19.48;37.08;100787.47;5028810;28;20061;-72
2022/03/30 04:18:47;;;;;;;4.55;3.33;;;;;;;19.50;36.95;100783.66;5043323;28;20052;-72
2022/03/30 04:21:13;;;;;;;5.28;3.78;;;;;;;19.49;36.95;100781.19;5016351;28;20420;-72
2022/03/30 04:23:39;;;;;;;5.10;3.40;;;;;;;19.48;37.13;100775.09;5035036;28;20037;-72
2022/03/30 04:26:04;;;;;;;4.68;3.15;;;;;;;19.46;37.10;100766.53;5011301;28;20049;-72
2022/03/30 04:28:30;;;;;;;4.25;3.42;;;;;;;19.40;37.00;100756.69;5036790;28;20570;-72
2022/03/30 04:30:56;;;;;;;4.45;3.65;;;;;;;19.42;37.19;100762.59;4999902;28;20065;-72
2022/03/30 04:33:22;;;;;;;4.40;3.20;;;;;;;19.46;37.01;100766.53;5041916;28;20032;-72
2022/03/30 04:35:48;;;;;;;4.38;3.25;;;;;;;19.48;37.43;100766.34;5015107;28;20227;-72
2022/03/30 04:38:14;;;;;;;5.13;3.03;;;;;;;19.49;36.99;100765.34;5048567;28;20679;-72
2022/03/30 04:40:41;;;;;;;4.85;3.65;;;;;;;19.47;37.12;100762.06;5018786;28;20044;-72
2022/03/30 04:43:07;;;;;;;4.00;3.20;;;;;;;19.39;37.10;100754.19;5059488;28;20024;-72
2022/03/30 04:45:33;;;;;;;5.18;3.15;;;;;;;19.45;37.12;100767.53;5036487;28;20040;-72
2022/03/30 04:47:59;;;;;;;5.10;3.40;;;;;;;19.48;37.13;100764.53;5016060;28;20021;-72
2022/03/30 04:50:26;;;;;;;4.57;2.90;;;;;;;19.33;36.88;100731.97;5041905;28;20045;-72
2022/03/30 04:52:52;;;;;;;4.03;2.88;;;;;;;19.57;36.95;100766.13;5014864;28;20048;-72
2022/03/30 04:55:19;;;;;;;4.50;3.28;;;;;;;19.78;36.53;100759.34;5042766;28;20529;-72
2022/03/30 04:57:45;;;;;;;4.68;2.83;;;;;;;19.77;36.62;100742.66;5012734;28;20080;-72
2022/03/30 05:00:12;;;;;;;3.67;2.80;;;;;;;19.82;36.90;100752.69;5039675;28;20080;-72
2022/03/30 05:02:39;;;;;;;3.70;2.88;;;;;;;20.10;36.59;100766.88;5002223;28;21147;-72
2022/03/30 05:05:06;;;;;;;4.55;3.30;;;;;;;20.22;36.50;100770.72;5051991;28;20056;-72
2022/03/30 05:07:32;;;;;;;4.30;2.72;;;;;;;20.36;36.56;100762.97;5039912;28;20049;-72
2022/03/30 05:09:57;;;;;;;2.88;2.45;;;;;;;20.30;36.56;100753.94;5005524;28;20041;-72
2022/03/30 05:12:23;;;;;;;2.83;2.35;;;;;;;20.57;36.12;100764.88;5039523;28;20470;-72
2022/03/30 05:14:49;;;;;;;3.78;2.80;;;;;;;20.59;36.04;100768.97;5017324;28;20068;-72
2022/03/30 05:17:15;;;;;;;3.28;2.70;;;;;;;20.61;36.10;100772.25;5045037;28;20064;-72
2022/03/30 05:19:41;;;;;;;4.50;2.80;;;;;;;20.51;36.31;100767.25;4993558;28;20139;-72
2022/03/30 05:22:06;;;;;;;3.45;2.58;;;;;;;20.52;36.21;100763.59;5040491;28;20045;-72
2022/03/30 05:24:32;;;;;;;2.78;2.33;;;;;;;20.58;36.12;100762.03;5011059;28;20064;-72
2022/03/30 05:26:58;;;;;;;3.50;2.60;;;;;;;20.56;36.28;100766.69;5049961;28;20048;-72
2022/03/30 05:29:24;;;;;;;2.97;2.53;;;;;;;20.64;36.17;100765.75;5013412;28;20482;-72
2022/03/30 05:31:50;;;;;;;2.72;2.13;;;;;;;20.89;35.89;100763.59;5036487;28;20029;-72
2022/03/30 05:34:15;;;;;;;2.70;2.40;;;;;;;20.91;35.91;100767.69;4987426;28;20040;-72
2022/03/30 05:36:41;;;;;;;3.67;2.10;;;;;;;20.92;36.02;100771.97;5041394;28;20044;-72
2022/03/30 05:39:07;;;;;;;2.72;2.08;;;;;;;21.04;35.80;100773.13;5041468;28;20040;-71
2022/03/30 05:41:33;;;;;;;2.42;2.22;;;;;;;21.18;35.50;100766.09;5014594;28;22402;-73
2022/03/30 05:44:00;;;;;;;3.13;2.03;;;;;;;21.10;35.69;100763.59;5037290;28;20395;-72
2022/03/30 05:46:26;;;;;;;2.92;2.05;;;;;;;21.06;35.74;100767.66;5020043;28;20562;-72
2022/03/30 05:48:51;;;;;;;2.95;2.10;;;;;;;21.06;35.59;100752.56;5037874;28;20037;-73
2022/03/30 05:51:18;;;;;;;2.63;1.92;;;;;;;21.01;35.92;100754.97;4994813;28;20043;-72
2022/03/30 05:53:44;;;;;;;2.95;2.05;;;;;;;20.99;35.89;100753.50;5029767;28;20518;-72
2022/03/30 05:56:10;;;;;;;2.20;1.80;;;;;;;20.95;35.79;100744.31;5009069;28;20041;-73
2022/03/30 05:58:35;;;;;;;2.47;2.15;;;;;;;21.04;35.62;100748.47;5036467;28;20033;-72
2022/03/30 06:01:01;;;;;;;1.92;1.80;;;;;;;20.89;35.60;100729.19;4994231;28;25458;-72
2022/03/30 06:03:26;;;;;;;2.58;2.15;;;;;;;21.01;35.82;100743.56;5037740;28;20102;-72
2022/03/30 06:05:52;;;;;;;2.15;1.90;;;;;;;20.98;35.94;100751.88;5006986;28;20735;-72
2022/03/30 06:08:18;;;;;;;3.10;1.90;;;;;;;21.00;35.67;100741.91;5024491;28;20040;-73
2022/03/30 06:10:43;;;;;;;2.10;1.90;;;;;;;21.00;35.69;100755.97;5036432;28;20389;-72
2022/03/30 06:13:09;;;;;;;2.50;1.98;;;;;;;20.97;35.83;100745.75;5004882;28;20045;-72
2022/03/30 06:15:37;;;;;;;2.40;1.77;;;;;;;20.89;36.13;100753.00;5037739;28;20044;-72
2022/03/30 06:18:05;;;;;;;2.20;1.85;;;;;;;20.95;36.02;100752.25;5011590;28;20033;-72
2022/03/30 06:20:31;;;;;;;2.20;1.88;;;;;;;20.99;35.81;100756.16;5038553;28;20045;-72
2022/03/30 06:22:57;;;;;;;1.77;1.58;;;;;;;21.03;36.00;100760.09;5005884;28;21022;-73
2022/03/30 06:25:24;;;;;;;2.30;1.70;;;;;;;21.05;35.82;100755.41;5019849;28;20057;-72
2022/03/30 06:27:50;;;;;;;2.33;2.00;;;;;;;21.16;35.62;100768.13;5036618;28;20075;-73
2022/03/30 06:30:15;;;;;;;2.13;1.80;;;;;;;21.07;35.78;100753.41;5009734;28;20163;-72
2022/03/30 06:32:41;;;;;;;1.83;1.58;;;;;;;21.18;35.35;100762.63;5040189;28;20036;-72
2022/03/30 06:35:07;;;;;;;1.80;1.50;;;;;;;21.20;35.58;100758.81;5017569;28;20045;-72
2022/03/30 06:37:32;;;;;;;2.10;1.90;;;;;;;21.23;35.36;100758.44;5044158;28;20043;-72
2022/03/30 06:39:58;;;;;;;1.73;1.63;;;;;;;21.21;35.56;100757.81;5003846;28;20924;-72
2022/03/30 06:42:24;;;;;;;2.25;1.50;;;;;;;21.18;35.63;100758.16;5040194;28;20044;-71
2022/03/30 06:44:49;;;;;;;2.33;1.58;;;;;;;21.16;35.52;100754.06;5012507;28;25134;-72
2022/03/30 06:47:15;;;;;;;1.70;1.60;;;;;;;21.09;35.39;100736.31;5039948;28;20047;-72
2022/03/30 06:49:41;;;;;;;1.48;1.30;;;;;;;21.16;35.59;100746.13;5013305;28;20025;-72
2022/03/30 06:52:09;;;;;;;1.77;1.67;;;;;;;21.09;35.58;100741.59;5032074;28;20457;-72
2022/03/30 06:54:36;;;;;;;1.90;1.65;;;;;;;21.15;35.36;100750.59;5026752;28;20041;-72
2022/03/30 06:57:03;;;;;;;1.88;1.60;;;;;;;21.17;35.57;100758.34;5015789;28;20106;-72
2022/03/30 06:59:29;;;;;;;1.98;1.60;;;;;;;21.15;35.34;100744.50;5037668;28;20036;-71
2022/03/30 07:01:58;;;;;;;2.47;1.48;;;;;;;21.22;35.42;100755.97;5002427;28;20848;-72
2022/03/30 07:04:24;;;;;;;3.45;1.63;;;;;;;21.25;35.38;100748.50;5040887;28;20206;-72
2022/03/30 07:12:19;;;;;;;1.40;1.30;;;;;;;21.17;35.50;100745.94;4996311;28;20342;-72
2022/03/30 07:14:46;;;;;;;1.70;1.60;;;;;;;21.15;35.44;100747.13;5034135;28;20177;-72
2022/03/30 07:17:12;;;;;;;1.80;1.70;;;;;;;21.18;35.53;100741.47;5042480;28;20152;-72
2022/03/30 07:19:38;;;;;;;1.48;1.17;;;;;;;21.15;35.60;100744.50;5007125;28;20829;-72
2022/03/30 07:22:04;;;;;;;1.30;1.20;;;;;;;21.12;35.63;100746.50;5040014;28;20413;-73
2022/03/30 07:24:30;;;;;;;1.48;1.30;;;;;;;21.13;35.68;100753.44;5016635;28;20041;-73
2022/03/30 07:26:55;;;;;;;1.30;1.20;;;;;;;20.75;36.38;100741.47;5031263;28;20044;-73
2022/03/30 07:29:21;;;;;;;1.48;1.25;;;;;;;21.09;35.62;100746.91;4994077;28;20483;-75
2022/03/30 07:31:47;;;;;;;2.03;1.25;;;;;;;21.17;35.26;100747.75;5048750;28;20529;-75
2022/03/30 07:34:12;;;;;;;3.33;1.67;;;;;;;21.21;34.98;100757.81;5031860;28;20179;-76
2022/03/30 07:36:38;;;;;;;2.88;1.35;;;;;;;21.27;34.97;100753.59;4998153;28;20456;-75
2022/03/30 07:39:04;;;;;;;3.20;1.30;;;;;;;21.36;34.97;100757.72;5035889;28;20114;-75
2022/03/30 07:41:30;;;;;;;1.38;1.20;;;;;;;21.36;34.74;100752.44;4997215;28;20053;-74
2022/03/30 07:43:55;;;;;;;1.60;1.50;;;;;;;21.46;34.38;100754.78;5034415;28;20045;-74
2022/03/30 07:46:21;;;;;;;2.33;1.38;;;;;;;21.35;34.63;100748.16;4994736;28;20107;-76
2022/03/30 07:48:46;;;;;;;1.35;1.15;;;;;;;21.37;34.67;100752.28;5033295;28;20041;-73
2022/03/30 07:51:12;;;;;;;1.83;1.08;;;;;;;21.32;34.53;100737.94;5000801;28;20514;-72
2022/03/30 07:53:38;;;;;;;1.77;1.13;;;;;;;21.40;34.20;100740.47;5024153;28;20491;-72
2022/03/30 07:56:04;;;;;;;1.55;1.33;;;;;;;21.36;34.25;100744.50;4999126;28;21672;-73
2022/03/30 07:58:30;;;;;;;2.65;1.23;;;;;;;21.30;34.42;100739.97;5035145;28;20041;-72
2022/03/30 08:00:56;;;;;;;2.63;1.08;;;;;;;21.31;34.27;100742.44;4998560;28;21222;-73
2022/03/30 08:03:22;;;;;;;1.73;1.33;;;;;;;21.24;34.31;100738.06;5023196;28;20479;-75
2022/03/30 08:05:47;;;;;;;2.17;1.15;;;;;;;21.28;34.26;100742.00;5028298;28;20120;-73
2022/03/30 08:08:13;;;;;;;4.30;1.42;;;;;;;21.25;34.30;100739.72;5012305;28;20102;-73
2022/03/30 08:10:39;;;;;;;2.15;1.50;;;;;;;21.24;34.36;100740.72;5041091;28;20033;-73
2022/03/30 08:13:05;;;;;;;3.25;1.30;;;;;;;21.26;34.42;100744.03;5004514;28;20040;-73
2022/03/30 08:15:32;;;;;;;2.70;1.30;;;;;;;21.34;34.17;100738.56;5030187;28;20772;-73
2022/03/30 08:17:58;;;;;;;1.20;1.10;;;;;;;21.58;33.78;100743.47;4990889;28;20087;-72
2022/03/30 08:23:09;;;;;;;1.42;1.30;;;;;;;21.58;33.34;100719.63;5011374;28;20830;-73
2022/03/30 08:25:35;;;;;;;1.58;1.20;;;;;;;21.78;33.30;100748.91;5037083;28;20119;-74
2022/03/30 08:28:02;;;;;;;1.58;1.40;;;;;;;21.79;33.30;100744.41;5016103;28;20130;-73
2022/03/30 08:30:28;;;;;;;2.80;1.52;;;;;;;21.75;33.43;100748.47;5029943;28;20051;-72
2022/03/30 08:32:54;;;;;;;2.30;1.30;;;;;;;21.57;33.71;100743.66;5005291;28;20078;-71
2022/03/30 08:35:21;;;;;;;3.13;1.35;;;;;;;21.55;33.80;100745.69;5025077;28;20041;-72
2022/03/30 08:37:46;;;;;;;2.65;1.20;;;;;;;21.53;34.25;100747.69;5039684;28;20037;-73
2022/03/30 08:40:12;;;;;;;1.98;1.38;;;;;;;21.48;34.37;100744.78;5014959;28;20083;-71
2022/03/30 08:42:40;;;;;;;1.70;1.23;;;;;;;21.51;34.53;100747.88;5034475;28;20061;-72
2022/03/30 08:45:07;;;;;;;1.85;1.33;;;;;;;21.48;34.48;100756.22;5016797;28;20044;-73
2022/03/30 08:47:34;;;;;;;3.08;1.30;;;;;;;21.48;34.78;100755.41;5034976;28;20698;-73
2022/03/30 08:49:59;;;;;;;2.10;1.33;;;;;;;21.46;34.45;100750.28;4996934;28;20036;-72
2022/03/30 08:52:25;;;;;;;1.65;1.02;;;;;;;21.44;34.50;100749.66;5038543;28;20061;-72
2022/03/30 08:54:51;;;;;;;1.27;1.15;;;;;;;21.40;34.50;100751.06;5010304;28;20041;-72
2022/03/30 08:57:18;;;;;;;1.95;1.05;;;;;;;21.40;34.23;100749.25;5043477;28;20554;-72
2022/03/30 08:59:57;;;;;;;3.38;1.50;;;;;;;21.29;34.94;100746.28;5015570;28;20407;-73
2022/03/30 09:02:23;;;;;;;1.48;1.17;;;;;;;21.28;34.80;100742.81;5036070;28;21482;-73
2022/03/30 09:05:15;;;;;;;3.35;1.70;;;;;;;21.36;34.67;100740.03;5001907;28;20094;-72
2022/03/30 09:07:48;;;;;;;1.65;1.00;;;;;;;21.34;35.15;100741.22;5025315;28;20064;-68
2022/03/30 09:10:20;;;;;;;1.50;1.17;;;;;;;21.38;34.98;100740.66;5043667;28;20047;-68
2022/03/30 09:12:48;;;;;;;1.88;1.17;;;;;;;21.38;34.84;100740.66;5007147;28;20063;-69
2022/03/30 09:15:14;;;;;;;2.17;1.05;;;;;;;21.40;34.83;100751.88;5031523;28;20137;-69
2022/03/30 09:17:41;;;;;;;1.75;0.98;;;;;;;21.44;34.93;100732.97;5006414;28;20125;-68
2022/03/30 09:20:14;;;;;;;1.88;1.13;;;;;;;21.47;34.98;100737.88;5033391;28;20084;-69
2022/03/30 09:22:55;;;;;;;1.00;0.80;;;;;;;21.45;34.83;100743.34;5000474;28;20078;-68
2022/03/30 09:25:24;;;;;;;2.17;1.50;;;;;;;21.44;34.73;100741.72;5029176;28;20142;-68
2022/03/30 09:27:53;;;;;;;2.33;1.05;;;;;;;21.42;34.87;100746.41;5010605;28;20043;-69
2022/03/30 09:30:19;;;;;;;1.00;1.00;;;;;;;21.44;34.77;100740.91;5034832;28;20787;-69
2022/03/30 09:32:47;;;;;;;1.30;1.20;;;;;;;21.31;35.06;100731.00;5005404;28;20037;-70
2022/03/30 09:35:27;;;;;;;1.13;0.90;;;;;;;21.42;34.85;100738.44;5034432;28;20116;-70
2022/03/30 09:38:03;;;;;;;1.63;1.13;;;;;;;21.47;34.87;100732.56;4987298;28;20067;-71
2022/03/30 09:40:51;;;;;;;1.70;1.10;;;;;;;21.53;34.87;100739.72;4991924;28;20072;-68
2022/03/30 09:43:19;;;;;;;1.63;0.98;;;;;;;21.56;35.24;100740.19;5004094;28;20161;-73
2022/03/30 09:45:46;;;;;;;2.15;1.20;;;;;;;21.47;35.60;100735.22;5037088;28;20155;-66
2022/03/30 09:48:23;;;;;;;1.58;1.10;;;;;;;21.48;35.45;100732.38;5002389;28;20524;-66
2022/03/30 09:50:52;;;;;;;1.30;1.00;;;;;;;21.48;35.44;100740.31;5038088;28;20615;-68
2022/03/30 09:53:21;;;;;;;3.58;1.45;;;;;;;21.52;35.16;100730.97;4985543;28;20048;-68
2022/03/30 09:56:05;;;;;;;1.25;1.08;;;;;;;21.54;35.05;100734.25;4993061;28;20110;-67
2022/03/30 09:58:34;;;;;;;2.58;1.02;;;;;;;21.35;34.95;100700.47;5034347;28;20037;-67
2022/03/30 10:01:14;;;;;;;3.42;1.23;;;;;;;21.56;34.85;100728.78;5019843;28;20495;-67
2022/03/30 10:03:45;;;;;;;3.42;1.02;;;;;;;21.49;34.94;100719.94;5007270;28;20153;-71
2022/03/30 10:06:13;;;;;;;0.88;0.70;;;;;;;21.51;34.86;100717.91;5036212;28;20048;-70
2022/03/30 10:08:41;;;;;;;0.80;0.80;;;;;;;21.58;34.95;100716.97;5002396;28;20696;-70
2022/03/30 10:11:07;;;;;;;1.65;0.93;;;;;;;21.56;34.83;100715.53;5014045;28;20041;-69
2022/03/30 10:13:32;;;;;;;1.58;1.00;;;;;;;21.54;34.68;100721.00;5008062;28;20036;-69
2022/03/30 10:15:58;;;;;;;1.45;0.85;;;;;;;21.57;34.68;100719.81;5006413;28;20690;-69
2022/03/30 10:18:24;;;;;;;1.63;1.50;;;;;;;21.49;34.93;100719.94;5011961;28;20044;-70
2022/03/30 10:21:03;;;;;;;1.70;1.00;;;;;;;21.53;34.98;100726.47;5004279;28;20823;-68
2022/03/30 10:23:37;;;;;;;2.00;0.82;;;;;;;21.54;34.91;100731.59;5013185;28;20674;-67
2022/03/30 10:26:12;;;;;;;1.27;0.90;;;;;;;21.51;34.93;100723.22;5007894;28;20082;-67
2022/03/30 10:28:40;;;;;;;1.63;1.00;;;;;;;21.55;34.89;100729.78;4999112;28;20032;-67
2022/03/30 10:31:07;;;;;;;2.47;1.00;;;;;;;21.52;34.69;100730.16;5026735;28;20545;-67
2022/03/30 10:33:36;;;;;;;1.00;0.68;;;;;;;21.48;34.76;100721.78;5004910;28;20147;-67
2022/03/30 10:36:20;;;;;;;1.13;0.60;;;;;;;21.51;34.63;100720.56;5013637;28;20036;-68
2022/03/30 10:39:14;;;;;;;1.17;0.65;;;;;;;21.40;34.86;100706.03;5008337;28;20487;-67
2022/03/30 10:42:08;;;;;;;1.52;0.90;;;;;;;21.49;34.77;100720.75;5005648;28;20041;-67
2022/03/30 10:44:37;;;;;;;0.80;0.80;;;;;;;21.47;34.73;100717.50;5003657;28;20099;-70
2022/03/30 10:47:10;;;;;;;1.08;0.80;;;;;;;21.45;34.92;100708.91;5016109;28;20036;-69
2022/03/30 10:49:38;;;;;;;1.27;0.77;;;;;;;21.44;34.87;100701.16;5011701;28;20117;-70
2022/03/30 10:52:42;;;;;;;1.63;0.95;;;;;;;21.46;34.92;100701.78;5009316;28;20037;-69
2022/03/30 10:55:14;;;;;;;0.50;0.50;;;;;;;21.47;34.97;100698.94;5015822;28;20037;-70
2022/03/30 10:57:58;;;;;;;1.13;0.80;;;;;;;21.44;34.62;100687.91;5008979;28;20116;-68
2022/03/30 11:00:41;;;;;;;1.33;0.93;;;;;;;21.40;34.54;100687.50;4999478;28;20966;-67
2022/03/30 11:03:25;;;;;;;1.27;1.05;;;;;;;21.40;34.79;100692.78;5022372;28;20045;-67
2022/03/30 11:06:02;;;;;;;3.42;1.15;;;;;;;21.39;34.89;100691.97;5009498;28;20041;-66
2022/03/30 11:08:34;;;;;;;0.90;0.52;;;;;;;21.36;34.63;100687.06;5009592;28;20033;-68
2022/03/30 11:11:19;;;;;;;1.27;0.70;;;;;;;21.30;34.65;100673.75;5025299;28;20040;-68
2022/03/30 11:13:45;;;;;;;1.52;0.77;;;;;;;21.32;34.70;100685.78;5007084;28;20035;-68
2022/03/30 11:16:11;;;;;;;2.25;0.75;;;;;;;21.28;34.79;100689.84;5000409;28;20044;-70
2022/03/30 11:18:54;;;;;;;0.95;0.77;;;;;;;21.17;34.78;100665.69;5011460;28;20084;-69
2022/03/30 11:21:22;;;;;;;2.13;0.90;;;;;;;21.30;34.94;100679.88;5007861;28;20169;-68
2022/03/30 11:24:04;;;;;;;0.68;0.63;;;;;;;21.35;34.85;100687.22;5004476;28;20045;-67
2022/03/30 11:26:58;;;;;;;0.90;0.90;;;;;;;21.29;34.81;100672.13;5012894;28;20559;-68
2022/03/30 11:29:45;;;;;;;0.93;0.60;;;;;;;21.30;34.70;100676.41;5002883;28;20765;-69
2022/03/30 11:32:19;;;;;;;1.08;0.63;;;;;;;21.31;34.98;100670.91;5018174;28;20377;-70
2022/03/30 11:34:56;;;;;;;1.33;0.60;;;;;;;21.33;35.04;100670.72;5005755;28;20162;-69
2022/03/30 11:37:30;;;;;;;1.20;0.73;;;;;;;21.34;34.89;100669.72;5013010;28;20551;-69
2022/03/30 11:40:08;;;;;;;0.65;0.50;;;;;;;21.33;34.65;100673.38;5021847;28;20111;-68
2022/03/30 11:42:36;;;;;;;2.17;0.93;;;;;;;21.35;34.84;100666.84;4994125;28;20372;-69